createdAt,value
2023-12-23T00:02:17.564Z,97267.84
2023-12-23T00:04:44.054Z,97273.78
2023-12-23T00:07:13.916Z,97273.91
2023-12-23T00:09:40.312Z,97286.72
2023-12-23T00:12:08.672Z,97292.31
2023-12-23T00:14:35.387Z,97285.53
2023-12-23T00:17:01.987Z,97297.38
2023-12-23T00:19:28.653Z,97285.28
2023-12-23T00:21:55.979Z,97312.84
2023-12-23T00:24:22.433Z,97304.66
2023-12-23T00:26:49.407Z,97302.31
2023-12-23T00:29:15.854Z,97301.41
2023-12-23T00:31:42.251Z,97317.16
2023-12-23T00:34:08.635Z,97310.16
2023-12-23T00:36:35.018Z,97317.84
2023-12-23T00:39:01.372Z,97322.25
2023-12-23T00:41:27.772Z,97329.16
2023-12-23T00:43:54.192Z,97328.19
2023-12-23T00:46:21.510Z,97320.06
2023-12-23T00:48:47.955Z,97329.84
2023-12-23T00:51:14.382Z,97337.53
2023-12-23T00:53:40.842Z,97340.13
2023-12-23T00:56:07.476Z,97343.84
2023-12-23T00:58:33.922Z,97342.09
2023-12-23T01:01:00.409Z,97357.63
2023-12-23T01:03:26.820Z,97353.28
2023-12-23T01:05:53.305Z,97357.81
2023-12-23T01:08:19.892Z,97356.53
2023-12-23T01:10:46.418Z,97358.25
2023-12-23T01:13:13.334Z,97365.25
2023-12-23T01:15:39.694Z,97363.19
2023-12-23T01:18:06.190Z,97360.91
2023-12-23T01:20:32.681Z,97366.59
2023-12-23T01:22:59.269Z,97368.09
2023-12-23T01:25:25.714Z,97360.13
2023-12-23T01:27:52.387Z,97376.22
2023-12-23T01:30:18.955Z,97365.88
2023-12-23T01:32:45.435Z,97380.72
2023-12-23T01:35:11.960Z,97372.09
2023-12-23T01:37:38.523Z,97385.03
2023-12-23T01:40:05.822Z,97363.50
2023-12-23T01:42:32.248Z,97359.28
2023-12-23T01:44:58.609Z,97373.97
2023-12-23T01:47:25.050Z,97381.41
2023-12-23T01:49:51.594Z,97374.69
2023-12-23T01:52:17.981Z,97380.72
2023-12-23T01:54:44.358Z,97395.50
2023-12-23T01:57:10.772Z,97396.13
2023-12-23T01:59:37.152Z,97392.53
2023-12-23T02:02:03.803Z,97411.72
2023-12-23T02:04:30.256Z,97382.66
2023-12-23T02:06:56.642Z,97375.81
2023-12-23T02:09:23.132Z,97385.16
2023-12-23T02:12:00.721Z,97383.59
2023-12-23T02:14:37.077Z,97401.06
2023-12-23T02:17:03.538Z,97403.19
2023-12-23T02:19:29.991Z,97404.97
2023-12-23T02:21:56.373Z,97389.00
2023-12-23T02:24:23.185Z,97418.94
2023-12-23T02:26:50.088Z,97414.78
2023-12-23T02:29:16.729Z,97411.66
2023-12-23T02:31:43.229Z,97417.56
2023-12-23T02:34:09.647Z,97414.59
2023-12-23T02:36:36.066Z,97422.97
2023-12-23T02:39:02.540Z,97418.69
2023-12-23T02:41:28.920Z,97429.88
2023-12-23T02:43:55.324Z,97427.38
2023-12-23T02:46:23.056Z,97419.69
2023-12-23T02:48:49.729Z,97437.19
2023-12-23T02:51:16.140Z,97415.53
2023-12-23T02:53:42.528Z,97449.88
2023-12-23T02:56:08.970Z,97449.25
2023-12-23T02:58:35.454Z,97453.06
2023-12-23T03:01:04.217Z,97466.16
2023-12-23T03:03:30.743Z,97460.19
2023-12-23T03:05:57.249Z,97474.31
2023-12-23T03:08:23.746Z,97484.38
2023-12-23T03:10:50.180Z,97486.63
2023-12-23T03:13:17.516Z,97505.91
2023-12-23T03:15:43.992Z,97498.00
2023-12-23T03:18:10.457Z,97513.44
2023-12-23T03:20:36.924Z,97504.56
2023-12-23T03:23:03.824Z,97506.84
2023-12-23T03:25:30.423Z,97503.84
2023-12-23T03:27:56.805Z,97495.66
2023-12-23T03:30:23.402Z,97509.00
2023-12-23T03:32:50.140Z,97499.06
2023-12-23T03:35:16.753Z,97517.16
2023-12-23T03:37:43.231Z,97514.34
2023-12-23T03:40:09.859Z,97522.19
2023-12-23T03:42:36.291Z,97519.53
2023-12-23T03:45:02.833Z,97535.88
2023-12-23T03:47:29.286Z,97546.16
2023-12-23T03:49:55.723Z,97534.91
2023-12-23T03:52:22.168Z,97528.72
2023-12-23T03:54:48.606Z,97534.66
2023-12-23T03:57:14.960Z,97525.91
2023-12-23T03:59:41.438Z,97555.41
2023-12-23T04:02:07.839Z,97517.34
2023-12-23T04:04:37.367Z,97539.66
2023-12-23T04:07:05.623Z,97563.88
2023-12-23T04:09:33.657Z,97556.19
2023-12-23T04:12:00.138Z,97569.66
2023-12-23T04:14:26.701Z,97568.34
2023-12-23T04:16:53.210Z,97577.00
2023-12-23T04:19:19.617Z,97575.03
2023-12-23T04:21:46.033Z,97588.06
2023-12-23T04:24:12.403Z,97585.66
2023-12-23T04:26:38.828Z,97589.88
2023-12-23T04:29:05.242Z,97594.06
2023-12-23T04:31:31.777Z,97598.22
2023-12-23T04:33:58.431Z,97610.25
2023-12-23T04:36:25.049Z,97591.78
2023-12-23T04:38:51.413Z,97607.91
2023-12-23T04:41:17.849Z,97612.00
2023-12-23T04:43:44.426Z,97625.00
2023-12-23T04:46:10.802Z,97615.66
2023-12-23T04:48:37.229Z,97611.94
2023-12-23T04:51:03.740Z,97628.38
2023-12-23T04:53:30.387Z,97637.63
2023-12-23T04:55:56.896Z,97659.31
2023-12-23T04:58:23.521Z,97650.97
2023-12-23T05:00:49.918Z,97647.44
2023-12-23T05:03:16.393Z,97667.22
2023-12-23T05:05:43.711Z,97667.09
2023-12-23T05:08:10.342Z,97661.38
2023-12-23T05:10:36.761Z,97665.00
2023-12-23T05:13:03.184Z,97685.06
2023-12-23T05:15:29.525Z,97688.22
2023-12-23T05:17:56.034Z,97707.19
2023-12-23T05:20:22.633Z,97701.84
2023-12-23T05:22:49.382Z,97695.00
2023-12-23T05:25:15.965Z,97713.44
2023-12-23T05:27:42.416Z,97714.13
2023-12-23T05:30:09.144Z,97712.81
2023-12-23T05:32:35.601Z,97706.75
2023-12-23T05:35:02.242Z,97718.19
2023-12-23T05:37:28.654Z,97742.53
2023-12-23T05:39:55.332Z,97725.50
2023-12-23T05:42:21.796Z,97719.56
2023-12-23T05:44:48.156Z,97729.81
2023-12-23T05:47:14.785Z,97734.78
2023-12-23T05:49:41.277Z,97735.63
2023-12-23T05:52:07.670Z,97719.94
2023-12-23T05:54:34.544Z,97730.84
2023-12-23T05:57:01.023Z,97733.22
2023-12-23T05:59:27.465Z,97738.16
2023-12-23T06:01:53.938Z,97741.59
2023-12-23T06:04:20.454Z,97731.31
2023-12-23T06:06:46.849Z,97743.13
2023-12-23T06:09:13.232Z,97746.75
2023-12-23T06:11:39.706Z,97746.53
2023-12-23T06:14:06.094Z,97762.72
2023-12-23T06:16:32.672Z,97760.38
2023-12-23T06:18:59.135Z,97763.66
2023-12-23T06:21:25.592Z,97756.75
2023-12-23T06:23:52.013Z,97761.78
2023-12-23T06:26:18.497Z,97765.19
2023-12-23T06:28:44.912Z,97767.88
2023-12-23T06:31:11.361Z,97770.31
2023-12-23T06:33:37.897Z,97782.41
2023-12-23T06:36:04.400Z,97773.72
2023-12-23T06:38:31.120Z,97795.88
2023-12-23T06:40:57.616Z,97782.13
2023-12-23T06:43:45.092Z,97794.09
2023-12-23T06:46:11.510Z,97807.91
2023-12-23T06:48:38.370Z,97790.66
2023-12-23T06:51:05.320Z,97797.34
2023-12-23T06:53:31.834Z,97797.56
2023-12-23T06:55:58.222Z,97809.72
2023-12-23T06:58:27.066Z,97805.53
2023-12-23T07:00:53.558Z,97813.22
2023-12-23T07:03:19.945Z,97812.41
2023-12-23T07:05:46.406Z,97806.38
2023-12-23T07:08:12.891Z,97822.59
2023-12-23T07:10:39.448Z,97832.72
2023-12-23T07:13:05.997Z,97828.53
2023-12-23T07:15:32.415Z,97829.38
2023-12-23T07:17:59.016Z,97834.47
2023-12-23T07:20:25.578Z,97842.22
2023-12-23T07:22:52.336Z,97838.78
2023-12-23T07:25:18.909Z,97852.50
2023-12-23T07:27:45.718Z,97857.00
2023-12-23T07:30:12.334Z,97851.53
2023-12-23T07:32:38.754Z,97851.53
2023-12-23T07:35:05.391Z,97847.41
2023-12-23T07:37:31.918Z,97850.69
2023-12-23T07:39:58.399Z,97855.03
2023-12-23T07:42:24.836Z,97858.72
2023-12-23T07:44:51.266Z,97862.06
2023-12-23T07:47:18.204Z,97871.38
2023-12-23T07:49:44.653Z,97868.66
2023-12-23T07:52:11.111Z,97861.69
2023-12-23T07:54:37.608Z,97871.19
2023-12-23T07:57:04.220Z,97867.63
2023-12-23T07:59:30.623Z,97865.94
2023-12-23T08:01:57.044Z,97884.00
2023-12-23T08:04:23.417Z,97871.19
2023-12-23T08:06:50.307Z,97871.19
2023-12-23T08:09:16.742Z,97877.81
2023-12-23T08:11:43.103Z,97865.94
2023-12-23T08:14:09.964Z,97871.81
2023-12-23T08:16:36.349Z,97876.97
2023-12-23T08:19:02.778Z,97879.56
2023-12-23T08:21:29.218Z,97865.94
2023-12-23T08:23:55.741Z,97880.56
2023-12-23T08:26:22.189Z,97876.97
2023-12-23T08:28:48.813Z,97876.28
2023-12-23T08:31:15.279Z,97864.97
2023-12-23T08:33:41.681Z,97859.25
2023-12-23T08:36:08.291Z,97877.13
2023-12-23T08:38:34.701Z,97868.31
2023-12-23T08:41:01.288Z,97886.44
2023-12-23T08:43:27.775Z,97881.31
2023-12-23T08:45:54.615Z,97870.16
2023-12-23T08:48:21.082Z,97878.53
2023-12-23T08:50:47.799Z,97891.31
2023-12-23T08:53:15.426Z,97882.88
2023-12-23T08:55:41.944Z,97886.31
2023-12-23T08:58:08.570Z,97892.94
2023-12-23T09:00:36.765Z,97890.56
2023-12-23T09:03:04.190Z,97892.16
2023-12-23T09:05:31.032Z,97888.69
2023-12-23T09:07:57.575Z,97894.69
2023-12-23T09:10:23.973Z,97881.03
2023-12-23T09:12:50.438Z,97893.00
2023-12-23T09:15:16.851Z,97886.09
2023-12-23T09:17:43.289Z,97895.66
2023-12-23T09:20:11.782Z,97895.59
2023-12-23T09:22:38.313Z,97888.75
2023-12-23T09:25:04.925Z,97889.25
2023-12-23T09:27:32.502Z,97892.66
2023-12-23T09:29:59.494Z,97899.38
2023-12-23T09:32:26.003Z,97888.84
2023-12-23T09:34:55.776Z,97903.38
2023-12-23T09:37:22.412Z,97893.81
2023-12-23T09:39:48.865Z,97884.47
2023-12-23T09:42:15.288Z,97879.88
2023-12-23T09:44:41.858Z,97888.41
2023-12-23T09:47:08.425Z,97891.91
2023-12-23T09:49:35.004Z,97881.97
2023-12-23T09:52:01.790Z,97888.06
2023-12-23T09:54:28.614Z,97898.47
2023-12-23T09:56:55.640Z,97896.44
2023-12-23T09:59:22.269Z,97898.19
2023-12-23T10:01:48.767Z,97909.38
2023-12-23T10:04:15.289Z,97894.41
2023-12-23T10:06:41.684Z,97892.53
2023-12-23T10:09:09.877Z,97902.53
2023-12-23T10:11:36.279Z,97896.59
2023-12-23T10:14:02.706Z,97895.53
2023-12-23T10:16:29.109Z,97911.00
2023-12-23T10:18:56.678Z,97914.19
2023-12-23T10:21:23.185Z,97909.25
2023-12-23T10:23:49.644Z,97903.19
2023-12-23T10:26:16.804Z,97910.78
2023-12-23T10:28:45.573Z,97903.47
2023-12-23T10:31:14.605Z,97911.22
2023-12-23T10:33:43.126Z,97904.22
2023-12-23T10:36:09.558Z,97909.59
2023-12-23T10:38:35.980Z,97912.59
2023-12-23T10:41:16.454Z,97918.88
2023-12-23T10:43:42.855Z,97923.59
2023-12-23T10:46:09.373Z,97901.78
2023-12-23T10:48:35.967Z,97912.97
2023-12-23T10:51:02.753Z,97922.50
2023-12-23T10:53:29.965Z,97926.91
2023-12-23T10:55:56.479Z,97918.06
2023-12-23T10:58:22.861Z,97928.22
2023-12-23T11:00:50.154Z,97925.22
2023-12-23T11:03:16.623Z,97929.59
2023-12-23T11:05:43.055Z,97934.16
2023-12-23T11:08:17.097Z,97925.09
2023-12-23T11:10:44.394Z,97939.97
2023-12-23T11:13:10.882Z,97927.94
2023-12-23T11:15:40.550Z,97932.56
2023-12-23T11:18:09.037Z,97950.00
2023-12-23T11:20:36.810Z,97948.53
2023-12-23T11:23:22.244Z,97958.88
2023-12-23T11:25:48.998Z,97959.53
2023-12-23T11:28:15.703Z,97949.91
2023-12-23T11:30:49.307Z,97943.19
2023-12-23T11:33:18.719Z,97974.56
2023-12-23T11:35:48.678Z,97976.09
2023-12-23T11:38:15.156Z,97967.66
2023-12-23T11:40:41.529Z,97965.41
2023-12-23T11:43:07.997Z,97975.88
2023-12-23T11:45:34.530Z,97976.03
2023-12-23T11:48:01.000Z,97946.75
2023-12-23T11:50:30.370Z,97969.75
2023-12-23T11:52:57.175Z,97975.03
2023-12-23T11:55:23.628Z,97989.81
2023-12-23T11:57:50.077Z,97979.53
2023-12-23T12:00:16.699Z,98000.03
2023-12-23T12:02:43.126Z,97999.19
2023-12-23T12:05:09.572Z,98004.25
2023-12-23T12:07:36.285Z,98015.22
2023-12-23T12:10:03.025Z,97991.88
2023-12-23T12:12:29.443Z,97994.19
2023-12-23T12:14:55.870Z,98001.91
2023-12-23T12:17:22.397Z,97997.47
2023-12-23T12:19:48.876Z,98017.22
2023-12-23T12:22:15.284Z,97999.38
2023-12-23T12:24:43.350Z,97996.72
2023-12-23T12:27:10.067Z,98011.13
2023-12-23T12:29:36.484Z,98014.41
2023-12-23T12:32:02.891Z,98022.81
2023-12-23T12:34:29.793Z,98004.16
2023-12-23T12:36:57.537Z,98018.06
2023-12-23T12:39:24.184Z,98018.97
2023-12-23T12:41:51.447Z,98026.66
2023-12-23T12:44:18.028Z,98022.13
2023-12-23T12:46:45.489Z,98015.25
2023-12-23T12:49:12.094Z,98034.09
2023-12-23T12:51:38.708Z,98023.28
2023-12-23T12:54:06.297Z,98036.25
2023-12-23T12:56:32.729Z,98024.41
2023-12-23T12:58:59.223Z,98046.81
2023-12-23T13:01:26.782Z,98037.56
2023-12-23T13:03:53.293Z,98052.31
2023-12-23T13:06:19.938Z,98061.03
2023-12-23T13:08:46.451Z,98066.28
2023-12-23T13:11:12.905Z,98073.16
2023-12-23T13:13:39.382Z,98078.75
2023-12-23T13:16:06.924Z,98074.38
2023-12-23T13:18:39.355Z,98083.47
2023-12-23T13:21:12.419Z,98072.94
2023-12-23T13:23:38.815Z,98077.34
2023-12-23T13:26:06.090Z,98052.66
2023-12-23T13:28:32.545Z,98077.44
2023-12-23T13:30:59.860Z,98082.88
2023-12-23T13:33:26.498Z,98085.78
2023-12-23T13:35:53.037Z,98094.41
2023-12-23T13:38:19.492Z,98101.47
2023-12-23T13:40:47.896Z,98097.19
2023-12-23T13:43:16.553Z,98094.03
2023-12-23T13:45:42.929Z,98106.06
2023-12-23T13:48:09.421Z,98117.34
2023-12-23T13:50:39.199Z,98117.53
2023-12-23T13:53:08.634Z,98118.22
2023-12-23T13:55:35.601Z,98123.63
2023-12-23T13:58:02.953Z,98141.00
2023-12-23T14:00:29.372Z,98142.63
2023-12-23T14:02:55.870Z,98137.34
2023-12-23T14:05:22.370Z,98156.34
2023-12-23T14:07:48.872Z,98161.78
2023-12-23T14:10:15.270Z,98165.22
2023-12-23T14:12:41.665Z,98173.09
2023-12-23T14:15:08.324Z,98168.91
2023-12-23T14:17:34.865Z,98179.47
2023-12-23T14:20:01.434Z,98180.41
2023-12-23T14:22:28.001Z,98188.44
2023-12-23T14:24:56.158Z,98186.69
2023-12-23T14:27:22.884Z,98192.84
2023-12-23T14:29:50.515Z,98195.41
2023-12-23T14:32:17.216Z,98203.41
2023-12-23T14:34:43.668Z,98211.16
2023-12-23T14:37:10.026Z,98215.72
2023-12-23T14:39:36.400Z,98225.03
2023-12-23T14:42:02.928Z,98228.63
2023-12-23T14:44:29.505Z,98234.88
2023-12-23T14:46:58.780Z,98234.75
2023-12-23T14:49:25.252Z,98241.03
2023-12-23T14:51:51.620Z,98254.81
2023-12-23T14:54:18.245Z,98257.13
2023-12-23T14:56:44.753Z,98260.66
2023-12-23T14:59:13.541Z,98261.75
2023-12-23T15:01:39.960Z,98258.31
2023-12-23T15:04:06.494Z,98268.25
2023-12-23T15:06:32.884Z,98272.88
2023-12-23T15:08:59.264Z,98274.72
2023-12-23T15:11:25.753Z,98283.59
2023-12-23T15:13:52.169Z,98276.81
2023-12-23T15:16:18.706Z,98289.75
2023-12-23T15:18:45.739Z,98306.16
2023-12-23T15:21:12.173Z,98306.34
2023-12-23T15:23:38.599Z,98303.84
2023-12-23T15:26:05.114Z,98295.88
